Wetterdaten: Juli 2007
Datum Temp. A. Feuchte A. Luftdruck Regen Wind Richtung Taupunkt Windchill Windben
01.07.2007 21,3 C 68 % 1010 hPa 0,0 l/m 1,2 km/h O-NO 14,4 C 21,3 C 0,8 km/h
02.07.2007 16,4 C 85 % 1009 hPa 4,7 l/m 4,7 km/h N-NO 13,8 C 15,9 C 3,2 km/h
03.07.2007 16,3 C 81 % 1006 hPa 2,6 l/m 7,3 km/h N-NO 12,6 C 15,8 C 4,8 km/h
04.07.2007 14,0 C 79 % 1007 hPa 8,8 l/m 5,8 km/h W-NW 10,2 C 13,8 C 3,8 km/h
05.07.2007 13,7 C 85 % 1012 hPa 4,1 l/m 3,9 km/h W-NW 11,1 C 13,7 C 2,6 km/h
06.07.2007 16,5 C 70 % 1011 hPa 1,6 l/m 3,5 km/h W-NW 10,7 C 16,5 C 2,4 km/h
07.07.2007 18,8 C 56 % 1016 hPa 0,0 l/m 8,5 km/h W-NW 9,4 C 18,0 C 7,7 km/h
08.07.2007 20,0 C 69 % 1015 hPa 0,0 l/m 5,1 km/h N 13,8 C 19,9 C 3,4 km/h
09.07.2007 17,4 C 71 % 1010 hPa 5,2 l/m 1,1 km/h W-NW 12,1 C 17,4 C 0,7 km/h
10.07.2007 13,1 C 80 % 1011 hPa 4,7 l/m 2,2 km/h W-NW 9,7 C 13,1 C 1,5 km/h
11.07.2007 16,1 C 63 % 1013 hPa 0,0 l/m 9,9 km/h W-NW 8,7 C 14,3 C 6,6 km/h
12.07.2007 15,6 C 75 % 1016 hPa 0,0 l/m 2,0 km/h W-NW 11,2 C 15,6 C 1,3 km/h
13.07.2007 20,0 C 72 % 1017 hPa 0,0 l/m 1,2 km/h W-NW 14,6 C 20,0 C 0,8 km/h
14.07.2007 24,5 C 62 % 1017 hPa 0,0 l/m 0,8 km/h NO 16,0 C 24,5 C 0,6 km/h
15.07.2007 26,6 C 56 % 1015 hPa 0,0 l/m 3,8 km/h O-NO 16,1 C 26,6 C 3,4 km/h
16.07.2007 27,3 C 56 % 1013 hPa 0,0 l/m 1,2 km/h N-NO 16,9 C 27,3 C 0,8 km/h
17.07.2007 25,1 C 53 % 1017 hPa 0,0 l/m 4,9 km/h W-NW 14,4 C 24,6 C 3,2 km/h
18.07.2007 21,4 C 75 % 1018 hPa 4,7 l/m 1,9 km/h NO 16,7 C 21,4 C 1,3 km/h
19.07.2007 22,4 C 77 % 1015 hPa 11,4 l/m 2,2 km/h O-NO 17,8 C 22,4 C 1,5 km/h
20.07.2007 23,2 C 75 % 1013 hPa 7,8 l/m 1,6 km/h NO 17,9 C 23,2 C 1,1 km/h
21.07.2007 21,4 C 79 % 1012 hPa 3,1 l/m 2,0 km/h N-NO 17,6 C 21,4 C 1,3 km/h
22.07.2007 18,2 C 71 % 1012 hPa 12,4 l/m 2,8 km/h W-NW 12,5 C 18,2 C 1,9 km/h
23.07.2007 19,8 C 72 % 1005 hPa 9,3 l/m 7,7 km/h O 13,8 C 19,4 C 6,6 km/h
24.07.2007 17,5 C 70 % 1007 hPa 2,6 l/m 11,3 km/h W-NW 11,8 C 15,6 C 12,5 km/h
25.07.2007 18,4 C 63 % 1015 hPa 0,0 l/m 2,3 km/h W-NW 10,9 C 18,4 C 1,5 km/h
26.07.2007 21,1 C 60 % 1012 hPa 0,0 l/m 3,8 km/h NO 12,3 C 21,1 C 2,5 km/h
27.07.2007 20,5 C 61 % 1015 hPa 0,0 l/m 4,4 km/h W-NW 12,6 C 20,3 C 3,0 km/h
28.07.2007 18,8 C 77 % 1015 hPa 3,1 l/m 4,7 km/h W-NW 14,5 C 18,2 C 3,2 km/h
29.07.2007 17,1 C 82 % 1011 hPa 1,6 l/m 3,8 km/h W-NW 13,9 C 17,1 C 2,5 km/h
30.07.2007 14,7 C 65 % 1016 hPa 1,0 l/m 3,1 km/h W-NW 7,9 C 14,7 C 2,1 km/h
31.07.2007 13,4 C 67 % 1018 hPa 0,0 l/m 3,5 km/h W-NW 7,0 C 13,4 C 2,3 km/h
Min-Datum 31.07.07 15.07.07 23.07.07 17 Tage 01.07.07 - 31.07.07 04.07.07 01.07.07
Min-Zeit 06:05 13:55 17:45 - 00:00 - 14:10 23:40 00:00
Minimum 9,1 C 30 % 1000 hPa - 0,0 km/h - 4,8 C 5,9 C 0,0 km/h
Max-Datum 16.07.07 20.07.07 18.07.07 22.07.07 06.07.07 - 19.07.07 16.07.07 20.07.07
Max-Zeit 15:45 06:20 07:15 00:15 15:35 - 15:15 15:45 16:15
Maximum 35,2 C 92 % 1020 hPa 12,4 l/m 38,3 km/h
W-NW
- 21,0 C 35,2 C 37,8 km/h
NO
Durchschnitt 19,1 C 70 % 1013 hPa #88,6 l/m 3,9 km/h W-NW 13,0 C 18,8 C 2,9 km/h

Durchschnitt Minimum Temp.13,8 C
Durchschnitt Maximum Temp.24,8 C